Terminal Aerodrome Forecast
Issued by NWS Wilmington, NC

Home | Current Version | Previous Version | Text Only | Print | Product List | Glossary On
Versions: 1 2 3 4 5 6 7 8 9 10 11 12 13 14 15
279
FTUS42 KILM 210557 CCA
TAFLBT
TAF COR
KLBT 210557Z 2106/2206 00000KT 3/4SM BR OVC007
      TEMPO 2106/2110 VRB02KT 4SM BR SCT007 BKN012
     FM211000 00000KT 1SM BR SCT006 OVC015
     FM211500 13004KT 2SM BR OVC015
     FM212000 17005KT 1SM -RA BR BKN003 OVC007
     FM220400 19003KT 1/2SM FG VV003=

USA.gov is the U.S. government's official web portal to all federal, state and local government web resources and services.